Time;durP1;ratioP1;P1;durP2;ratioP2;P2;SDS_P1;SDS_P2;PMS_P1;PMS_P2;Temp;Humidity;BMP_temperature;BMP_pressure;BME280_temperature;BME280_humidity;BME280_pressure;Samples;Min_cycle;Max_cycle;Signal;HPM_P1;HPM_P2
2022/04/18 00:00:33;;;;;;;4.35;1.10;;;;;;;5.84;95.75;100861.41;5053230;28;20104;-61
2022/04/18 00:03:03;;;;;;;2.13;0.90;;;;;;;6.25;98.28;100937.88;5087787;28;20106;-61
2022/04/18 00:05:29;;;;;;;3.45;1.17;;;;;;;6.16;100.00;100937.19;5095870;28;20028;-61
2022/04/18 00:07:55;;;;;;;3.55;1.35;;;;;;;6.10;99.69;100937.34;5095528;28;20044;-61
2022/04/18 00:10:20;;;;;;;2.47;1.00;;;;;;;5.96;98.30;100921.13;5093909;28;20075;-61
2022/04/18 00:12:45;;;;;;;2.75;1.17;;;;;;;5.95;100.00;100932.44;5095534;28;20054;-61
2022/04/18 00:15:11;;;;;;;2.83;1.02;;;;;;;5.90;93.83;100926.50;5091509;28;20032;-61
2022/04/18 00:17:36;;;;;;;2.67;0.95;;;;;;;5.87;92.24;100926.56;5053721;28;20809;-61
2022/04/18 00:20:02;;;;;;;3.25;1.05;;;;;;;5.85;97.24;100930.91;5051885;28;20036;-61
2022/04/18 00:22:27;;;;;;;3.58;1.45;;;;;;;5.60;100.00;100895.88;5033124;28;20919;-61
2022/04/18 00:24:53;;;;;;;1.90;1.08;;;;;;;5.64;100.00;100918.38;5033004;28;20889;-61
2022/04/18 00:27:18;;;;;;;2.47;1.30;;;;;;;5.37;100.00;100885.06;5032757;28;20245;-61
2022/04/18 00:29:44;;;;;;;2.70;1.10;;;;;;;5.43;100.00;100916.22;5031792;28;20064;-61
2022/04/18 00:32:09;;;;;;;3.17;1.23;;;;;;;5.35;100.00;100902.47;5033097;28;20975;-61
2022/04/18 00:34:34;;;;;;;2.92;1.30;;;;;;;5.35;100.00;100912.91;5031891;28;20909;-61
2022/04/18 00:37:00;;;;;;;3.22;1.10;;;;;;;5.32;100.00;100912.97;5031519;28;20068;-61
2022/04/18 00:39:25;;;;;;;2.08;1.05;;;;;;;5.25;100.00;100908.75;5031441;28;20039;-61
2022/04/18 00:41:51;;;;;;;3.20;1.50;;;;;;;5.02;100.00;100873.63;5031546;28;20028;-60
2022/04/18 00:44:16;;;;;;;2.55;1.30;;;;;;;5.18;100.00;100904.56;5033033;28;20905;-60
2022/04/18 00:46:41;;;;;;;3.67;1.02;;;;;;;5.09;100.00;100906.47;5032706;28;20032;-60
2022/04/18 00:49:07;;;;;;;1.95;1.00;;;;;;;5.05;100.00;100914.38;5033945;28;20028;-60
2022/04/18 00:51:32;;;;;;;2.65;1.30;;;;;;;5.03;100.00;100918.75;5031663;28;20036;-60
2022/04/18 00:53:58;;;;;;;2.08;1.27;;;;;;;4.97;100.00;100911.91;5032139;28;20082;-60
2022/04/18 00:56:24;;;;;;;2.55;1.20;;;;;;;4.90;100.00;100905.09;5033303;28;20855;-61
2022/04/18 00:58:50;;;;;;;2.92;1.40;;;;;;;4.89;100.00;100908.59;5033589;28;20041;-61
2022/04/18 01:01:16;;;;;;;2.72;1.30;;;;;;;4.87;100.00;100910.34;5035228;28;20905;-61
2022/04/18 01:03:42;;;;;;;2.30;1.40;;;;;;;4.83;100.00;100908.72;5049570;28;20042;-61
2022/04/18 01:06:08;;;;;;;4.63;1.23;;;;;;;4.74;100.00;100902.81;5032424;28;20062;-61
2022/04/18 01:08:34;;;;;;;3.05;1.30;;;;;;;4.40;100.00;100856.59;5032229;28;20028;-61
2022/04/18 01:11:00;;;;;;;2.63;1.17;;;;;;;4.52;100.00;100876.34;5031878;28;20813;-61
2022/04/18 01:13:27;;;;;;;2.38;1.33;;;;;;;4.65;100.00;100911.66;5031062;28;20874;-61
2022/04/18 01:15:54;;;;;;;2.72;1.33;;;;;;;4.58;100.00;100903.09;5032442;28;20023;-61
2022/04/18 01:18:19;;;;;;;3.25;1.25;;;;;;;4.55;100.00;100904.91;5031973;28;20143;-61
2022/04/18 01:20:45;;;;;;;1.92;0.93;;;;;;;4.53;100.00;100906.66;5033158;28;20105;-61
2022/04/18 01:23:10;;;;;;;4.93;1.35;;;;;;;4.46;100.00;100905.06;5032968;28;20782;-61
2022/04/18 01:31:04;;;;;;;1.73;0.95;;;;;;;4.15;100.00;100865.69;5056004;28;20522;-61
2022/04/18 01:33:29;;;;;;;3.90;1.55;;;;;;;4.34;100.00;100900.03;5073515;28;20028;-61
2022/04/18 01:35:55;;;;;;;4.53;1.50;;;;;;;4.38;100.00;100896.53;5072986;28;20028;-61
2022/04/18 01:38:21;;;;;;;2.78;1.38;;;;;;;4.18;100.00;100860.44;5062800;28;20040;-61
2022/04/18 01:40:46;;;;;;;2.75;1.02;;;;;;;4.33;100.00;100893.13;5062557;28;20052;-61
2022/04/18 01:43:11;;;;;;;3.60;1.33;;;;;;;4.34;100.00;100897.44;5093672;28;20406;-61
2022/04/18 01:45:37;;;;;;;2.60;1.50;;;;;;;4.32;100.00;100900.09;5089709;28;20044;-61
2022/04/18 01:48:02;;;;;;;3.00;1.45;;;;;;;4.28;100.00;100887.16;5093744;28;20051;-61
2022/04/18 01:50:28;;;;;;;2.50;1.35;;;;;;;4.23;100.00;100888.97;5093254;28;20032;-61
2022/04/18 01:52:53;;;;;;;2.38;1.27;;;;;;;4.25;100.00;100887.22;5093605;28;20028;-61
2022/04/18 01:55:18;;;;;;;4.50;2.20;;;;;;;4.19;100.00;100882.13;5093273;28;20036;-61
2022/04/18 01:57:44;;;;;;;2.78;1.33;;;;;;;4.15;100.00;100890.84;5093450;28;20112;-61
2022/04/18 02:00:10;;;;;;;2.60;1.55;;;;;;;4.10;100.00;100899.56;5065812;28;20135;-61
2022/04/18 02:02:35;;;;;;;2.95;1.65;;;;;;;4.04;100.00;100891.00;5051236;28;20036;-61
2022/04/18 02:05:01;;;;;;;2.55;1.40;;;;;;;4.01;100.00;100889.31;5051170;28;20027;-61
2022/04/18 02:07:28;;;;;;;2.78;1.40;;;;;;;3.59;100.00;100837.97;5051027;28;20097;-61
2022/04/18 02:09:54;;;;;;;2.17;1.23;;;;;;;3.86;100.00;100892.16;5052428;28;20093;-61
2022/04/18 02:12:20;;;;;;;4.68;1.88;;;;;;;3.86;100.00;100904.28;5051073;28;20020;-61
2022/04/18 02:14:45;;;;;;;3.25;1.73;;;;;;;3.82;100.00;100890.47;5052497;28;20027;-61
2022/04/18 02:17:10;;;;;;;4.03;1.70;;;;;;;3.72;100.00;100875.06;5050545;28;20796;-60
2022/04/18 02:19:36;;;;;;;2.75;1.50;;;;;;;3.73;100.00;100882.81;5050670;28;20020;-60
2022/04/18 02:22:01;;;;;;;3.53;1.73;;;;;;;3.54;100.00;100864.03;5051750;28;20135;-60
2022/04/18 02:24:26;;;;;;;3.03;1.50;;;;;;;3.65;100.00;100884.66;5051588;28;20929;-60
2022/04/18 02:26:52;;;;;;;3.63;1.83;;;;;;;3.59;100.00;100883.00;5050399;28;20885;-60
2022/04/18 02:29:18;;;;;;;3.70;2.08;;;;;;;3.07;100.00;100799.78;5051286;28;20028;-60
2022/04/18 02:34:28;;;;;;;3.00;1.73;;;;;;;3.47;100.00;100882.31;5052128;28;20090;-60
2022/04/18 02:36:53;;;;;;;3.30;1.77;;;;;;;3.18;100.00;100835.13;5050251;28;20852;-60
2022/04/18 02:39:19;;;;;;;3.15;1.60;;;;;;;3.39;100.00;100882.41;5054097;28;20859;-60
2022/04/18 02:41:44;;;;;;;3.00;1.70;;;;;;;3.30;100.00;100868.69;5051863;28;20043;-60
2022/04/18 02:44:09;;;;;;;3.40;1.88;;;;;;;3.28;100.00;100873.06;5050456;28;20043;-60
2022/04/18 02:46:35;;;;;;;5.07;1.67;;;;;;;3.26;100.00;100874.81;5050904;28;20782;-60
2022/04/18 02:49:00;;;;;;;4.10;1.90;;;;;;;3.26;100.00;100869.63;5050101;28;20024;-60
2022/04/18 02:51:27;;;;;;;4.80;1.88;;;;;;;3.28;100.00;100868.72;5050414;28;20039;-60
2022/04/18 02:53:53;;;;;;;2.80;1.60;;;;;;;3.11;100.00;100849.88;5050057;28;20865;-60
2022/04/18 02:56:19;;;;;;;4.38;2.10;;;;;;;3.23;100.00;100869.66;5052280;28;20035;-60
2022/04/18 02:58:45;;;;;;;3.15;1.77;;;;;;;3.15;100.00;100858.50;5050095;28;20136;-60
2022/04/18 03:01:10;;;;;;;2.97;1.42;;;;;;;3.14;100.00;100864.59;5050705;28;20046;-61
2022/04/18 03:03:35;;;;;;;2.75;1.58;;;;;;;3.06;100.00;100844.78;5051268;28;20028;-61
2022/04/18 03:06:01;;;;;;;3.28;1.60;;;;;;;3.08;100.00;100856.00;5055085;28;20973;-60
2022/04/18 03:08:26;;;;;;;2.95;1.63;;;;;;;3.07;100.00;100856.03;5083540;28;20020;-60
2022/04/18 03:11:04;;;;;;;2.97;1.75;;;;;;;3.02;100.00;100853.47;5050566;28;20058;-60
2022/04/18 03:13:32;;;;;;;3.70;1.95;;;;;;;3.02;100.00;100855.22;5050301;28;20024;-60
2022/04/18 03:15:58;;;;;;;2.42;1.33;;;;;;;2.98;100.00;100851.78;5049366;28;20853;-60
2022/04/18 03:18:23;;;;;;;2.55;1.55;;;;;;;2.95;100.00;100854.41;5073175;28;20089;-60
2022/04/18 03:20:49;;;;;;;3.40;1.55;;;;;;;2.93;100.00;100851.00;5092245;28;20043;-60
2022/04/18 03:23:14;;;;;;;3.70;1.80;;;;;;;2.90;100.00;100856.22;5085976;28;20032;-60
2022/04/18 03:25:39;;;;;;;3.45;1.95;;;;;;;2.88;100.00;100847.59;5050239;28;20915;-60
2022/04/18 03:28:05;;;;;;;3.95;1.95;;;;;;;2.81;100.00;100845.94;5050673;28;20089;-60
2022/04/18 03:30:30;;;;;;;5.07;1.98;;;;;;;2.70;100.00;100828.78;5049155;28;20135;-60
2022/04/18 03:32:56;;;;;;;5.15;2.10;;;;;;;2.68;100.00;100836.56;5049981;28;20032;-61
2022/04/18 03:35:21;;;;;;;3.63;2.00;;;;;;;2.72;100.00;100851.22;5049551;28;20406;-61
2022/04/18 03:40:30;;;;;;;7.03;2.20;;;;;;;2.62;100.00;100846.16;5049949;28;20055;-61
2022/04/18 03:42:55;;;;;;;5.28;1.67;;;;;;;2.64;100.00;100852.22;5050453;28;20939;-61
2022/04/18 03:45:21;;;;;;;4.53;2.00;;;;;;;2.62;100.00;100851.34;5054636;28;20028;-61
2022/04/18 03:47:46;;;;;;;6.72;2.10;;;;;;;2.63;100.00;100853.06;5053406;28;20816;-61
2022/04/18 03:50:12;;;;;;;3.22;1.98;;;;;;;2.65;100.00;100854.75;5052751;28;20090;-60
2022/04/18 03:52:37;;;;;;;4.07;2.25;;;;;;;2.43;100.00;100820.41;5053298;28;20138;-61
2022/04/18 03:55:03;;;;;;;3.55;2.20;;;;;;;2.65;100.00;100852.19;5052812;28;20039;-61
2022/04/18 03:57:28;;;;;;;10.88;1.80;;;;;;;2.61;100.00;100845.28;5053054;28;20553;-61
2022/04/18 03:59:54;;;;;;;2.90;1.73;;;;;;;2.66;100.00;100868.59;5053728;28;20070;-61
2022/04/18 04:02:19;;;;;;;3.67;1.67;;;;;;;2.58;100.00;100858.28;5054499;28;20020;-61
2022/04/18 04:04:45;;;;;;;4.30;1.88;;;;;;;2.55;100.00;100863.53;5053044;28;20050;-61
2022/04/18 04:07:10;;;;;;;4.10;2.22;;;;;;;2.42;100.00;100846.38;5053286;28;20901;-61
2022/04/18 04:09:37;;;;;;;3.25;1.92;;;;;;;2.40;100.00;100848.13;5051659;28;20024;-61
2022/04/18 04:12:03;;;;;;;4.80;2.60;;;;;;;2.39;100.00;100841.22;5054543;28;20036;-61
2022/04/18 04:14:29;;;;;;;3.50;2.05;;;;;;;2.41;100.00;100844.63;5062587;28;20036;-61
2022/04/18 04:16:54;;;;;;;4.93;2.58;;;;;;;2.42;100.00;100846.38;5095794;28;20375;-61
2022/04/18 04:19:19;;;;;;;4.15;2.22;;;;;;;2.32;100.00;100839.56;5095412;28;20035;-61
2022/04/18 04:21:45;;;;;;;3.63;1.92;;;;;;;2.34;100.00;100848.16;5095344;28;20406;-61
2022/04/18 04:24:10;;;;;;;3.53;1.90;;;;;;;2.33;100.00;100851.66;5095025;28;20096;-61
2022/04/18 04:26:36;;;;;;;3.28;1.90;;;;;;;2.27;100.00;100837.00;5095228;28;20387;-61
2022/04/18 04:29:01;;;;;;;6.07;2.10;;;;;;;2.25;100.00;100837.88;5095056;28;20060;-61
2022/04/18 04:31:27;;;;;;;2.80;1.88;;;;;;;2.32;100.00;100852.50;5095190;28;20024;-61
2022/04/18 04:33:52;;;;;;;3.72;2.15;;;;;;;2.28;100.00;100846.50;5085526;28;20531;-61
2022/04/18 04:36:17;;;;;;;4.30;2.00;;;;;;;2.27;100.00;100851.69;5094749;28;20075;-61
2022/04/18 04:38:43;;;;;;;3.80;2.13;;;;;;;2.28;100.00;100848.22;5066421;28;20032;-61
2022/04/18 04:41:08;;;;;;;7.20;2.42;;;;;;;2.23;100.00;100840.47;5052074;28;20066;-61
2022/04/18 04:43:34;;;;;;;3.15;1.83;;;;;;;2.28;100.00;100853.41;5055240;28;20177;-61
2022/04/18 04:46:02;;;;;;;3.42;1.83;;;;;;;2.21;100.00;100847.44;5094870;28;20028;-60
2022/04/18 04:48:27;;;;;;;3.17;1.90;;;;;;;2.14;100.00;100840.56;5094724;28;20380;-61
2022/04/18 04:50:53;;;;;;;5.18;2.20;;;;;;;2.09;100.00;100823.34;5094699;28;20165;-61
2022/04/18 04:53:18;;;;;;;8.27;2.42;;;;;;;2.10;100.00;100830.25;5094643;28;20054;-60
2022/04/18 04:55:44;;;;;;;3.50;2.13;;;;;;;2.15;100.00;100847.50;5092966;28;20379;-61
2022/04/18 04:58:10;;;;;;;3.67;2.30;;;;;;;2.19;100.00;100850.91;5092583;28;20047;-61
2022/04/18 05:00:36;;;;;;;6.40;3.00;;;;;;;2.20;100.00;100852.63;5089012;28;20450;-60
2022/04/18 05:03:02;;;;;;;4.47;2.13;;;;;;;2.24;100.00;100847.41;5074070;28;20035;-61
2022/04/18 05:05:27;;;;;;;4.20;2.45;;;;;;;2.28;100.00;100858.59;5074210;28;20052;-61
2022/04/18 05:07:53;;;;;;;3.92;2.38;;;;;;;2.28;100.00;100866.38;5036680;28;20052;-60
2022/04/18 05:10:18;;;;;;;4.00;2.33;;;;;;;1.81;100.00;100782.16;5032749;28;20074;-60
2022/04/18 05:12:44;;;;;;;5.68;2.92;;;;;;;2.28;100.00;100858.59;5032023;28;20432;-60
2022/04/18 05:15:09;;;;;;;5.47;3.00;;;;;;;2.35;100.00;100866.31;5032688;28;20032;-61
2022/04/18 05:17:35;;;;;;;5.95;2.88;;;;;;;2.38;100.00;100860.22;5031581;28;20139;-61
2022/04/18 05:20:03;;;;;;;4.63;2.63;;;;;;;2.44;100.00;100860.16;5014540;28;20044;-60
2022/04/18 05:22:28;;;;;;;7.40;2.83;;;;;;;2.26;100.00;100821.47;5030699;28;20029;-61
2022/04/18 05:24:55;;;;;;;4.55;2.78;;;;;;;2.60;100.00;100866.06;5031896;28;20819;-61
2022/04/18 05:27:21;;;;;;;5.65;2.58;;;;;;;2.70;100.00;100878.94;5030667;28;20139;-60
2022/04/18 05:29:46;;;;;;;4.70;2.65;;;;;;;2.71;100.00;100861.63;5030520;28;20040;-60
2022/04/18 05:32:12;;;;;;;3.88;2.38;;;;;;;2.85;100.00;100872.72;5031515;28;20763;-62
2022/04/18 05:34:37;;;;;;;5.00;2.53;;;;;;;2.88;100.00;100863.16;5030125;28;20037;-61
2022/04/18 05:37:04;;;;;;;3.72;2.70;;;;;;;3.00;100.00;100865.63;5012971;28;20840;-61
2022/04/18 05:39:29;;;;;;;4.40;2.70;;;;;;;2.91;100.00;100831.97;5031006;28;20052;-61
2022/04/18 05:41:56;;;;;;;10.70;3.15;;;;;;;3.20;100.00;100872.28;5030285;28;20040;-61
2022/04/18 05:44:22;;;;;;;5.72;3.03;;;;;;;3.32;100.00;100872.13;5031320;28;20143;-61
2022/04/18 05:46:48;;;;;;;5.72;3.00;;;;;;;3.17;100.00;100830.81;5030196;28;20064;-61
2022/04/18 05:49:14;;;;;;;5.18;3.20;;;;;;;3.52;100.00;100867.53;5029844;28;20149;-61
2022/04/18 05:51:39;;;;;;;7.85;2.90;;;;;;;3.56;100.00;100859.66;5029860;28;20870;-61
2022/04/18 05:54:05;;;;;;;4.97;3.38;;;;;;;3.69;100.00;100857.75;5029585;28;20036;-61
2022/04/18 05:56:31;;;;;;;7.20;3.55;;;;;;;3.82;100.00;100874.88;5015893;28;20024;-61
2022/04/18 05:58:57;;;;;;;5.35;2.80;;;;;;;3.99;100.00;100872.88;5045985;28;20093;-61
2022/04/18 06:01:23;;;;;;;4.78;2.67;;;;;;;4.12;100.00;100861.38;5029687;28;20135;-61
2022/04/18 06:03:48;;;;;;;5.35;3.08;;;;;;;4.25;100.00;100861.19;5031449;28;20028;-61
2022/04/18 06:06:14;;;;;;;9.68;3.15;;;;;;;4.41;100.00;100862.66;5029848;28;20029;-61
2022/04/18 06:08:39;;;;;;;4.85;3.50;;;;;;;4.57;100.00;100869.28;5046773;28;21001;-61
2022/04/18 06:11:05;;;;;;;7.45;3.78;;;;;;;4.17;100.00;100772.03;5031721;28;20101;-61
2022/04/18 06:13:31;;;;;;;5.68;3.35;;;;;;;4.88;100.00;100867.81;5074403;28;20039;-60
2022/04/18 06:15:56;;;;;;;5.90;3.10;;;;;;;4.84;100.00;100829.72;5093271;28;20040;-61
2022/04/18 06:18:22;;;;;;;6.05;3.63;;;;;;;5.13;100.00;100853.44;5093229;28;20058;-61
2022/04/18 06:20:47;;;;;;;5.28;2.80;;;;;;;5.35;100.00;100856.44;5070459;28;20140;-61
2022/04/18 06:23:16;;;;;;;5.43;2.72;;;;;;;5.50;100.00;100861.31;5054182;28;20059;-61
2022/04/18 06:25:41;;;;;;;4.65;2.90;;;;;;;5.64;100.00;100863.63;5092975;28;20047;-61
2022/04/18 06:28:07;;;;;;;5.30;2.50;;;;;;;5.88;100.00;100868.28;5076268;28;20883;-61
2022/04/18 06:30:32;;;;;;;3.53;1.90;;;;;;;6.11;100.00;100880.81;5049171;28;20133;-61
2022/04/18 06:32:58;;;;;;;4.88;2.30;;;;;;;6.31;100.00;100882.91;5049428;28;20070;-61
2022/04/18 06:35:23;;;;;;;3.85;2.08;;;;;;;6.54;100.00;100880.56;5050044;28;20036;-61
2022/04/18 06:37:49;;;;;;;5.07;2.78;;;;;;;6.76;100.00;100892.16;5032278;28;20090;-61
2022/04/18 06:40:14;;;;;;;11.10;2.70;;;;;;;6.69;100.00;100846.25;5050182;28;20039;-60
2022/04/18 06:42:39;;;;;;;7.35;2.50;;;;;;;7.13;100.00;100884.19;5049141;28;20035;-61
2022/04/18 06:45:05;;;;;;;3.83;2.25;;;;;;;7.33;100.00;100894.06;5090761;28;20482;-60
2022/04/18 06:47:31;;;;;;;4.32;2.70;;;;;;;7.51;100.00;100898.75;5090421;28;20483;-61
2022/04/18 06:49:56;;;;;;;5.45;2.90;;;;;;;7.70;100.00;100902.53;5071423;28;20035;-60
2022/04/18 06:52:22;;;;;;;5.30;2.20;;;;;;;7.88;100.00;100888.03;5048806;28;20102;-61
2022/04/18 06:54:48;;;;;;;5.65;2.53;;;;;;;7.98;100.00;100889.44;5063779;28;20033;-61
2022/04/18 06:57:14;;;;;;;6.47;3.13;;;;;;;7.97;100.00;100858.97;5072449;28;20158;-60
2022/04/18 06:59:40;;;;;;;6.20;2.90;;;;;;;8.21;100.00;100871.25;5073228;28;20103;-61
2022/04/18 07:02:05;;;;;;;5.25;2.85;;;;;;;8.13;100.00;100836.63;5075734;28;20123;-61
2022/04/18 07:04:30;;;;;;;6.63;2.80;;;;;;;8.28;100.00;100840.50;5075421;28;20471;-60
2022/04/18 07:06:56;;;;;;;10.88;2.88;;;;;;;8.69;100.00;100889.72;5071786;28;20456;-61
2022/04/18 07:09:21;;;;;;;6.22;2.90;;;;;;;8.77;100.00;100879.84;5071475;28;20086;-61
2022/04/18 07:11:46;;;;;;;6.95;3.00;;;;;;;8.98;100.00;100879.09;5056041;28;20024;-60
2022/04/18 07:14:13;;;;;;;4.57;2.72;;;;;;;9.15;100.00;100889.81;5077873;28;20025;-61
2022/04/18 07:16:39;;;;;;;4.82;2.58;;;;;;;9.27;100.00;100882.38;5078538;28;20447;-61
2022/04/18 07:19:04;;;;;;;4.95;2.80;;;;;;;9.45;100.00;100884.34;5072826;28;20029;-60
2022/04/18 07:21:30;;;;;;;2.95;2.03;;;;;;;9.57;100.00;100881.25;5083301;28;20387;-61
2022/04/18 07:23:56;;;;;;;3.35;2.13;;;;;;;9.54;100.00;100857.75;5044231;28;20780;-61
2022/04/18 07:26:22;;;;;;;3.60;1.85;;;;;;;9.79;100.00;100882.13;5025067;28;20028;-60
2022/04/18 07:28:47;;;;;;;4.88;2.35;;;;;;;9.87;100.00;100879.22;5027712;28;20082;-61
2022/04/18 07:31:14;;;;;;;4.88;2.40;;;;;;;10.01;100.00;100885.59;5031196;28;20267;-61
2022/04/18 07:33:40;;;;;;;3.60;2.20;;;;;;;9.92;100.00;100835.25;5016632;28;20093;-61
2022/04/18 07:36:06;;;;;;;5.75;2.13;;;;;;;10.21;98.37;100869.06;5045400;28;20101;-61
2022/04/18 07:38:49;;;;;;;4.95;2.17;;;;;;;10.32;96.69;100871.25;5048388;28;20893;-61
2022/04/18 07:41:15;;;;;;;4.90;2.17;;;;;;;10.35;96.03;100850.97;5052716;28;20235;-61
2022/04/18 07:43:41;;;;;;;5.47;2.47;;;;;;;10.55;96.91;100882.50;5036782;28;20101;-61
2022/04/18 07:46:07;;;;;;;8.00;2.38;;;;;;;10.47;94.93;100844.38;5052888;28;20038;-61
2022/04/18 07:48:32;;;;;;;3.45;2.25;;;;;;;10.77;93.48;100874.59;5052593;28;20028;-61
2022/04/18 07:53:42;;;;;;;3.25;1.88;;;;;;;11.00;92.65;100871.78;5052795;28;20094;-61
2022/04/18 07:56:07;;;;;;;4.03;2.50;;;;;;;11.08;90.18;100861.81;5049605;28;20818;-61
2022/04/18 07:58:33;;;;;;;5.55;2.60;;;;;;;11.14;87.60;100858.03;5032058;28;20045;-61
2022/04/18 08:00:58;;;;;;;4.68;1.88;;;;;;;11.25;87.19;100853.16;5031965;28;20064;-61
2022/04/18 08:03:24;;;;;;;3.97;1.98;;;;;;;11.42;86.77;100862.91;5031909;28;20034;-61
2022/04/18 08:05:49;;;;;;;3.58;2.13;;;;;;;11.53;85.34;100866.72;5031686;28;20025;-62
2022/04/18 08:08:15;;;;;;;3.83;2.17;;;;;;;11.59;84.54;100850.63;5033082;28;20980;-61
2022/04/18 08:10:40;;;;;;;5.05;2.30;;;;;;;11.79;83.56;100870.81;5031823;28;20039;-61
2022/04/18 08:13:06;;;;;;;5.03;3.08;;;;;;;11.89;82.80;100869.44;5032190;28;21022;-61
2022/04/18 08:15:32;;;;;;;4.03;1.98;;;;;;;11.99;81.10;100869.84;5031476;28;20090;-61
2022/04/18 08:17:57;;;;;;;4.30;2.60;;;;;;;11.96;79.85;100843.66;5032029;28;20040;-61
2022/04/18 08:20:23;;;;;;;4.00;1.63;;;;;;;12.24;76.08;100870.34;5031676;28;20037;-61
2022/04/18 08:22:49;;;;;;;3.45;1.85;;;;;;;12.36;72.21;100863.63;5031805;28;20034;-61
2022/04/18 08:25:15;;;;;;;3.08;1.73;;;;;;;12.51;73.96;100863.69;5032322;28;20025;-61
2022/04/18 08:27:40;;;;;;;3.97;2.00;;;;;;;12.64;69.26;100858.66;5031904;28;20028;-61
2022/04/18 08:30:06;;;;;;;3.75;2.15;;;;;;;12.69;71.36;100846.09;5030830;28;20053;-61
2022/04/18 08:32:38;;;;;;;3.63;2.10;;;;;;;12.98;72.48;100855.97;5031395;28;20028;-61
2022/04/18 08:35:04;;;;;;;3.47;1.88;;;;;;;13.10;71.46;100846.59;5032119;28;20094;-61
2022/04/18 08:37:29;;;;;;;4.47;2.30;;;;;;;13.21;69.56;100838.97;5030464;28;20098;-61
2022/04/18 08:39:55;;;;;;;3.70;2.20;;;;;;;13.43;70.57;100851.81;5031260;28;20871;-62
2022/04/18 08:42:23;;;;;;;4.60;2.15;;;;;;;13.59;71.83;100850.91;5031841;28;20028;-61
2022/04/18 08:44:53;;;;;;;3.65;1.75;;;;;;;13.60;69.73;100828.00;5032267;28;20036;-61
2022/04/18 08:52:53;;;;;;;3.38;2.05;;;;;;;14.40;63.85;100835.75;5030760;28;20043;-62
2022/04/18 08:55:18;;;;;;;3.15;1.85;;;;;;;14.26;65.02;100789.75;5031346;28;20024;-62
2022/04/18 08:57:43;;;;;;;4.75;2.35;;;;;;;14.70;62.70;100837.38;5030869;28;20135;-61
2022/04/18 09:00:09;;;;;;;7.47;2.47;;;;;;;14.86;61.91;100847.06;5032142;28;20854;-61
2022/04/18 09:02:36;;;;;;;4.22;2.13;;;;;;;14.96;62.92;100849.06;5031541;28;20028;-62
2022/04/18 09:05:02;;;;;;;3.55;2.00;;;;;;;15.02;61.88;100843.38;5031984;28;20032;-61
2022/04/18 09:07:27;;;;;;;3.72;2.40;;;;;;;15.15;62.70;100843.47;5032892;28;20293;-61
2022/04/18 09:09:55;;;;;;;3.25;1.80;;;;;;;15.27;63.01;100833.00;5033453;28;20998;-62
2022/04/18 09:12:22;;;;;;;4.90;2.22;;;;;;;15.27;59.83;100821.56;5048628;28;20090;-62
2022/04/18 09:14:48;;;;;;;4.47;2.40;;;;;;;15.42;60.87;100839.09;5032803;28;20038;-62
2022/04/18 09:17:33;;;;;;;3.60;1.75;;;;;;;15.43;59.19;100824.06;5015933;28;20025;-61
2022/04/18 09:20:06;;;;;;;4.10;1.85;;;;;;;15.49;58.75;100824.56;5032476;28;21013;-61
2022/04/18 09:22:42;;;;;;;3.83;2.40;;;;;;;15.52;55.60;100823.50;5030399;28;20029;-61
2022/04/18 09:25:21;;;;;;;4.03;2.42;;;;;;;15.50;56.94;100807.72;5030965;28;20075;-61
2022/04/18 09:27:53;;;;;;;5.38;2.33;;;;;;;15.43;58.56;100773.75;5032257;28;20036;-62
2022/04/18 09:30:19;;;;;;;3.70;2.00;;;;;;;15.66;58.46;100818.19;5031105;28;20029;-61
2022/04/18 09:33:16;;;;;;;3.92;2.00;;;;;;;15.78;55.13;100820.06;5032143;28;20831;-61
2022/04/18 09:35:42;;;;;;;6.88;1.83;;;;;;;15.83;56.43;100816.16;4990887;28;20055;-61
2022/04/18 09:38:10;;;;;;;4.90;1.92;;;;;;;15.85;57.46;100782.44;5045445;28;20028;-62
2022/04/18 09:40:36;;;;;;;4.72;2.05;;;;;;;16.18;57.71;100803.22;5042561;28;20177;-62
2022/04/18 09:43:02;;;;;;;5.50;2.35;;;;;;;16.33;57.22;100796.88;5041121;28;20028;-62
2022/04/18 09:45:27;;;;;;;4.82;2.25;;;;;;;16.55;56.08;100804.28;5044857;28;20083;-62
2022/04/18 09:47:55;;;;;;;8.15;2.08;;;;;;;16.68;54.90;100799.81;5042027;28;20587;-62
2022/04/18 09:53:06;;;;;;;10.32;2.38;;;;;;;16.74;52.09;100780.81;5047185;28;20140;-62
2022/04/18 09:55:32;;;;;;;4.05;1.92;;;;;;;16.76;48.74;100786.03;5051777;28;20865;-62
2022/04/18 09:58:02;;;;;;;2.72;1.73;;;;;;;16.61;48.10;100768.50;5049938;28;20028;-62
2022/04/18 10:00:27;;;;;;;4.43;2.35;;;;;;;16.77;49.99;100782.38;5067024;28;20028;-62
2022/04/18 10:02:53;;;;;;;4.50;2.58;;;;;;;16.57;52.48;100743.13;5033124;28;20028;-62
2022/04/18 10:05:19;;;;;;;3.72;2.33;;;;;;;16.87;51.33;100788.75;5030352;28;20032;-62
2022/04/18 10:07:46;;;;;;;4.93;2.55;;;;;;;16.97;48.23;100784.50;5042811;28;20024;-61
2022/04/18 10:10:13;;;;;;;4.45;2.42;;;;;;;16.97;49.43;100776.53;5014541;28;20093;-62
2022/04/18 10:12:38;;;;;;;3.88;1.75;;;;;;;17.15;50.14;100769.94;5057019;28;20917;-62
2022/04/18 10:15:04;;;;;;;5.03;2.55;;;;;;;17.36;49.21;100781.69;5030262;28;20029;-62
2022/04/18 10:17:30;;;;;;;6.72;3.05;;;;;;;17.35;46.97;100769.34;5030437;28;20029;-62
2022/04/18 10:20:12;;;;;;;3.95;1.75;;;;;;;17.33;47.17;100771.28;5012891;28;20041;-61
2022/04/18 10:22:52;;;;;;;5.80;2.15;;;;;;;17.54;49.00;100773.34;5031960;28;20037;-62
2022/04/18 10:25:26;;;;;;;4.57;2.35;;;;;;;17.76;50.84;100769.00;5031447;28;20028;-62
2022/04/18 10:28:28;;;;;;;3.88;2.10;;;;;;;17.94;46.02;100764.16;5032857;28;20788;-61
2022/04/18 10:30:58;;;;;;;3.90;2.10;;;;;;;18.18;48.64;100764.94;5020413;28;20099;-62
2022/04/18 10:33:24;;;;;;;4.43;2.67;;;;;;;18.20;48.50;100763.03;5049044;28;20029;-62
2022/04/18 10:36:04;;;;;;;3.53;2.28;;;;;;;18.19;48.77;100766.63;5039196;28;20851;-62
2022/04/18 10:38:36;;;;;;;4.30;2.80;;;;;;;17.90;48.09;100712.16;5042490;28;20020;-62
2022/04/18 10:41:15;;;;;;;5.75;2.65;;;;;;;18.18;47.69;100762.28;5043960;28;20716;-62
2022/04/18 10:43:59;;;;;;;4.55;2.55;;;;;;;18.12;48.82;100768.06;5045734;28;20028;-62
2022/04/18 10:46:24;;;;;;;8.23;2.75;;;;;;;18.16;50.30;100753.56;5049066;28;20068;-62
2022/04/18 10:48:57;;;;;;;6.45;3.25;;;;;;;18.31;48.83;100760.41;5046281;28;20037;-62
2022/04/18 10:51:27;;;;;;;5.70;3.03;;;;;;;18.47;49.58;100753.88;5046433;28;20024;-62
2022/04/18 10:54:15;;;;;;;7.80;2.80;;;;;;;18.68;49.27;100754.91;5044457;28;20028;-62
2022/04/18 10:57:15;;;;;;;5.05;2.97;;;;;;;18.71;49.08;100749.34;5046314;28;20091;-62
2022/04/18 10:59:42;;;;;;;8.82;3.22;;;;;;;18.67;45.64;100726.59;5047471;28;20130;-62
2022/04/18 11:02:08;;;;;;;4.72;2.45;;;;;;;18.75;49.30;100726.84;5046620;28;20035;-62
2022/04/18 11:04:39;;;;;;;4.70;2.97;;;;;;;19.05;50.10;100743.06;5046120;28;20820;-62
2022/04/18 11:07:09;;;;;;;4.20;3.03;;;;;;;19.24;50.65;100739.75;5046350;28;20108;-62
2022/04/18 11:09:44;;;;;;;7.75;2.90;;;;;;;19.39;45.38;100727.88;5062374;28;20040;-62
2022/04/18 11:12:12;;;;;;;7.28;3.35;;;;;;;19.51;49.38;100731.38;5028212;28;20572;-62
2022/04/18 11:14:37;;;;;;;4.35;2.65;;;;;;;19.81;48.35;100724.34;5046278;28;20032;-62
2022/04/18 11:17:04;;;;;;;6.47;2.67;;;;;;;20.16;47.31;100723.22;5047215;28;20127;-62
2022/04/18 11:19:36;;;;;;;5.00;2.83;;;;;;;20.43;46.95;100725.38;5045772;28;20139;-62
2022/04/18 11:22:05;;;;;;;5.75;3.03;;;;;;;20.54;46.78;100717.28;5059850;28;20136;-62
2022/04/18 11:24:49;;;;;;;4.30;3.10;;;;;;;20.36;45.83;100715.22;5033132;28;20234;-62
2022/04/18 11:27:16;;;;;;;4.10;2.50;;;;;;;20.35;44.70;100713.53;5043422;28;20073;-62
2022/04/18 11:30:04;;;;;;;3.75;2.45;;;;;;;20.71;45.96;100714.00;5042584;28;20063;-62
2022/04/18 11:32:31;;;;;;;4.35;2.10;;;;;;;21.05;44.36;100688.69;5042542;28;20032;-62
2022/04/18 11:34:58;;;;;;;5.60;2.88;;;;;;;21.26;44.14;100685.91;5037361;28;20032;-62
2022/04/18 11:37:27;;;;;;;4.45;2.25;;;;;;;21.77;44.40;100715.09;5039831;28;20037;-62
2022/04/18 11:39:57;;;;;;;3.88;2.40;;;;;;;22.29;44.31;100712.00;5043082;28;20048;-62
2022/04/18 11:42:28;;;;;;;6.55;2.65;;;;;;;23.46;41.93;100708.69;5052356;28;20865;-62
2022/04/18 11:44:55;;;;;;;5.10;2.95;;;;;;;25.55;39.31;100712.94;5039309;28;20032;-62